createdAt,value
2017-08-14T00:05:07.987Z,0
2017-08-14T00:15:21.788Z,0
2017-08-14T00:25:36.443Z,0
2017-08-14T00:35:51.631Z,0
2017-08-14T00:46:05.381Z,0
2017-08-14T00:56:20.224Z,0
2017-08-14T01:06:34.824Z,0
2017-08-14T01:16:50.508Z,0
2017-08-14T01:27:05.680Z,0
2017-08-14T01:37:20.963Z,0
2017-08-14T01:47:35.720Z,0
2017-08-14T01:57:50.043Z,0
2017-08-14T02:08:05.096Z,0
2017-08-14T02:18:19.340Z,0
2017-08-14T02:28:34.625Z,0
2017-08-14T02:38:48.974Z,0
2017-08-14T02:49:03.533Z,0
2017-08-14T02:59:19.256Z,0
2017-08-14T03:09:33.578Z,0
2017-08-14T03:19:49.060Z,0
2017-08-14T03:30:03.569Z,0
2017-08-14T03:40:19.199Z,8
2017-08-14T03:50:33.367Z,32
2017-08-14T04:00:47.564Z,116
2017-08-14T04:11:01.438Z,344
2017-08-14T04:21:15.841Z,756
2017-08-14T04:31:30.966Z,1340
2017-08-14T04:41:45.477Z,2016
2017-08-14T04:52:00.077Z,2732
2017-08-14T05:02:15.057Z,3480
2017-08-14T05:12:30.157Z,4236
2017-08-14T05:22:44.719Z,5040
2017-08-14T05:32:58.891Z,5936
2017-08-14T05:43:14.312Z,8240
2017-08-14T05:53:29.018Z,8716
2017-08-14T06:03:44.617Z,7704
2017-08-14T06:13:59.241Z,8540
2017-08-14T06:24:14.789Z,9548
2017-08-14T06:34:30.300Z,9984
2017-08-14T06:44:45.387Z,10792
2017-08-14T06:55:00.144Z,10980
2017-08-14T07:05:15.555Z,11928
2017-08-14T07:15:31.203Z,11592
2017-08-14T07:25:45.553Z,48576
2017-08-14T07:36:00.204Z,39488
2017-08-14T07:46:15.849Z,44064
2017-08-14T07:56:30.982Z,47040
2017-08-14T08:06:46.208Z,47584
2017-08-14T08:17:01.064Z,46528
2017-08-14T08:27:15.818Z,48000
2017-08-14T08:37:31.488Z,56512
2017-08-14T08:47:46.725Z,58816
2017-08-14T08:58:02.217Z,65952
2017-08-14T09:08:16.922Z,64896
2017-08-14T09:18:31.639Z,67008
2017-08-14T09:28:46.684Z,68736
2017-08-14T09:39:02.636Z,70464
2017-08-14T09:49:16.703Z,66112
2017-08-14T09:59:31.650Z,68544
2017-08-14T10:09:47.582Z,71200
2017-08-14T10:20:03.546Z,84224
2017-08-14T10:30:19.045Z,86880
2017-08-14T10:40:34.600Z,86336
2017-08-14T10:50:50.012Z,92096
2017-08-14T11:01:05.037Z,97248
2017-08-14T11:11:19.939Z,90176
2017-08-14T11:21:34.330Z,91968
2017-08-14T11:31:49.265Z,88480
2017-08-14T11:42:03.245Z,95040
2017-08-14T11:52:17.744Z,91520
2017-08-14T12:02:33.008Z,88480
2017-08-14T12:12:47.034Z,103712
2017-08-14T12:23:02.513Z,96480
2017-08-14T12:33:17.829Z,117024
2017-08-14T12:43:32.665Z,81248
2017-08-14T12:53:47.451Z,52128
2017-08-14T13:04:02.308Z,33312
2017-08-14T13:14:16.317Z,46944
2017-08-14T13:24:32.024Z,108736
2017-08-14T13:34:46.133Z,51296
2017-08-14T13:45:01.471Z,97632
2017-08-14T13:55:16.521Z,87776
2017-08-14T14:05:32.135Z,85440
2017-08-14T14:15:46.114Z,86144
2017-08-14T14:26:00.841Z,78176
2017-08-14T14:36:14.933Z,78432
2017-08-14T14:46:30.668Z,80128
2017-08-14T14:56:46.545Z,63840
2017-08-14T15:07:02.472Z,47808
2017-08-14T15:17:16.997Z,58272
2017-08-14T15:27:32.432Z,57248
2017-08-14T15:37:48.092Z,29152
2017-08-14T15:48:02.242Z,25984
2017-08-14T15:58:16.853Z,30400
2017-08-14T16:08:31.127Z,13476
2017-08-14T16:18:46.875Z,14320
2017-08-14T16:29:02.476Z,20224
2017-08-14T16:39:18.139Z,21920
2017-08-14T16:49:32.697Z,43392
2017-08-14T16:59:47.319Z,30336
2017-08-14T17:10:02.668Z,25312
2017-08-14T17:20:18.254Z,20192
2017-08-14T17:30:34.122Z,18208
2017-08-14T17:40:49.623Z,13340
2017-08-14T17:51:03.637Z,5576
2017-08-14T18:01:18.711Z,5260
2017-08-14T18:11:32.599Z,3436
2017-08-14T18:21:46.828Z,2468
2017-08-14T18:32:00.649Z,1772
2017-08-14T18:42:15.915Z,876
2017-08-14T18:52:30.821Z,368
2017-08-14T19:02:46.156Z,132
2017-08-14T19:13:00.825Z,44
2017-08-14T19:23:15.484Z,8
2017-08-14T19:33:29.604Z,0
2017-08-14T19:43:43.606Z,0
2017-08-14T19:53:59.402Z,0
2017-08-14T20:04:13.742Z,0
2017-08-14T20:14:28.726Z,0
2017-08-14T20:24:43.520Z,0
2017-08-14T20:34:57.996Z,0
2017-08-14T20:45:13.102Z,0
2017-08-14T20:55:28.640Z,0
2017-08-14T21:05:44.286Z,0
2017-08-14T21:15:59.121Z,0
2017-08-14T21:26:14.228Z,0
2017-08-14T21:36:28.070Z,0
2017-08-14T21:46:43.787Z,0
2017-08-14T21:56:58.917Z,0
2017-08-14T22:07:14.513Z,0
2017-08-14T22:17:29.446Z,0
2017-08-14T22:27:43.960Z,0
2017-08-14T22:37:58.890Z,0
2017-08-14T22:48:13.520Z,0
2017-08-14T22:58:27.380Z,0
2017-08-14T23:08:42.916Z,0
2017-08-14T23:18:57.360Z,0
2017-08-14T23:29:11.724Z,0
2017-08-14T23:39:27.207Z,0
2017-08-14T23:49:42.831Z,0
2017-08-14T23:59:56.758Z,0
